AirNav  
 
 651 users online  

2NK4 Westchester Resco Heliport
Peekskill, New York, USA

GOING TO PEEKSKILL?


FAA INFORMATION EFFECTIVE 01 FEBRUARY 2018

Location

FAA Identifier: 2NK4
Lat/Long: 41-16-38.3380N / 073-56-25.4990W
41-16.638967N / 073-56.424983W
41.2773161 / -73.9404164
(estimated)
Elevation: 72 ft. / 22 m (estimated)
Variation: 13W (1985)
From city: 1 mile NE of PEEKSKILL, NY
Time zone: UTC -5 (UTC -4 during Daylight Saving Time)
Zip code: 10566

Heliport Operations

Heliport use: Private use. Permission required prior to landing
Activation date: 06/1987
Control tower: no
ARTCC: NEW YORK CENTER
FSS: NEW YORK FLIGHT SERVICE STATION
Attendance: UNATNDD
Segmented circle: no

Heliport Communications

WX ASOS at HPN (16 nm SE): PHONE 914-288-0216

Nearby radio navigation aids

VOR radial/distance  VOR name  Freq  Var
CMKr281/16.2CARMEL VOR/DME116.6012W
IGNr205/23.9KINGSTON VOR/DME117.6012W
TEBr023/26.3TETERBORO VOR/DME108.4011W
SAXr076/29.8SPARTA VORTAC115.7011W
LGAr006/29.8LA GUARDIA VOR/DME113.1012W
HUOr116/30.4HUGUENOT VOR/DME116.1011W
PWLr219/33.3PAWLING VOR/DME114.3012W
BDRr293/37.5BRIDGEPORT VOR/DME108.8012W
JFKr001/39.4KENNEDY VOR/DME115.9012W
CRIr008/39.9CANARSIE VOR/DME112.3011W

 
NDB name  Hdg/Dist  Freq  Var  ID
STANWYCK175/15.826112WSKU ... -.- ..-
CLERA274/37.836214WJWE .--- .-- .
CHATHAM048/39.125413WCAT -.-. .- -

Heliport Services

Runway Information

Helipad H1

Dimensions: 30 x 30 ft. / 9 x 9 m
Surface: asphalt
Traffic pattern: leftleft

Heliport Ownership and Management from official FAA records

Ownership: Privately-owned
Owner: WESTCHESTER RESCO CO. L.P.
1 CHARLES POINT AVE.
PEEKSKILL, NY 10566
Phone 914-739-9304
Manager: BRETT BAKER
1 CHARLES POINT AVE.
PEEKSKILL, NY 10566
Phone 914-739-9304
ADDITIONAL CONTACT: JIM PRYOR 914-739-9304 EX. 214

Instrument Procedures

There are no published instrument procedures at 2NK4.

Some nearby airports with instrument procedures:

KSWF - Stewart International Airport (15 nm NW)
KHPN - Westchester County Airport (16 nm SE)
KMGJ - Orange County Airport (20 nm NW)
4N1 - Greenwood Lake Airport (20 nm SW)
KPOU - Hudson Valley Regional Airport (21 nm N)
 
Loc | Ops | Rwys | IFR | FBO | Links
Com | Nav | Svcs | Stats | Notes

AirNav Hotels Sweepstakes
 
Area around 2NK4 (Westchester Resco Heliport)
 
Road maps at: MapQuest Bing Google
 
Aerial photo
No photo
 
Sectional chart

 
Airport distance calculator
Flying to Westchester Resco Heliport? Find the distance to fly.

From to 2NK4

Sunrise and sunset
Times for 19-Feb-2018
 Local
(UTC-5)
 Zulu
(UTC)
Morning civil twilight06:1811:18
Sunrise06:4611:46
Sunset17:3322:33
Evening civil twilight18:0123:01

Current date and time
Zulu (UTC)  20-Feb-2018 04:48:16
Local (UTC-5)  19-Feb-2018 23:48:16
 
METAR
KSWF 
15nm NW 
200355Z 00000KT 1SM R09/4000FT BR OVC004 04/04 A3031
KHPN 
17nm SE 
200435Z 10003KT 1/4SM R16/1400V2400FT FG VV001 04/04 A3030 RMK AO2 T00440044
KMGJ 
21nm NW 
SuperAWOS
200354Z AUTO 00000KT 1/2SM FG VV003 03/03 A3030 RMK AO2 RAE31B42E49 SLP262 P0001 T00280028
KDXR 
21nm E 
200400Z AUTO 00000KT 1/2SM FG VV003 A3033 RMK AO2 $
KPOU 
22nm N 
200440Z AUTO 32004KT 3/4SM BR OVC004 03/03 A3030 RMK AO2 T00330028
KTEB 
25nm S 
200435Z 15003KT 1/4SM R06/3000V4500FT -DZ FG OVC003 07/07 A3030 RMK AO2 TWR VIS 1/2 P0000 T00720067 $
KCDW 
28nm SW 
200438Z AUTO 00000KT 3/4SM BR OVC004 05/05 A3031 RMK AO2 T00500050 TSNO
TAF
KSWF 
15nm NW 
200253Z 2003/2106 VRB03KT 3SM -RADZ BR BKN005 WS020/23035KT TEMPO 2003/2006 1SM -RADZ FM200600 VRB03KT 1/2SM -RADZ FG VV002 FM201500 23005KT 3SM BR BKN007 FM201800 22010G16KT 6SM HZ SCT007 SCT015 BKN250 FM202300 VRB05KT 3SM BR SCT015 BKN250 FM210300 VRB03KT 2SM BR SCT007 BKN015 AMD NOT SKED
KHPN 
17nm SE 
200255Z 2003/2024 VRB03KT 1/4SM -DZ FG OVC001 WS020/23035KT FM201300 VRB03KT 1/2SM FG VV002 TEMPO 2013/2015 1SM BR SCT003 BKN005 FM201500 21005KT 3SM BR BKN007 FM201700 22005KT 6SM BR SCT007 BKN015 FM201900 21005KT 6SM HZ SCT015 SCT025 BKN250 FM202300 21003KT P6SM SCT015 BKN250 AMD NOT SKED
NOTAMs
Click for the latest NOTAMs
NOTAMs are issued by the DoD/FAA and will open in a separate window not controlled by AirNav.

 

 
 

Would you like to see your business listed on this page?

 If your business provides an interesting product or service to pilots, flight crews, aircraft, or users of the Westchester Resco Heliport, you should consider listing it here.  To start the listing process, click on the button below
 
Add a business
 

Other Pages about Westchester Resco Heliport

Update a link
 
Copyright © AirNav, LLC. All rights reserved. Privacy Policy  Contact